createdAt,value
2022-08-04T00:00:16.113Z,24.25
2022-08-04T00:03:02.183Z,24.27
2022-08-04T00:05:56.953Z,24.34
2022-08-04T00:08:41.461Z,24.39
2022-08-04T00:11:15.420Z,24.35
2022-08-04T00:14:03.506Z,24.28
2022-08-04T00:16:41.861Z,24.24
2022-08-04T00:19:30.543Z,24.17
2022-08-04T00:22:10.978Z,24.14
2022-08-04T00:24:41.755Z,24.16
2022-08-04T00:27:09.171Z,24.16
2022-08-04T00:29:38.788Z,24.12
2022-08-04T00:32:08.668Z,24.11
2022-08-04T00:34:36.991Z,24.15
2022-08-04T00:37:06.072Z,24.20
2022-08-04T00:39:34.931Z,24.15
2022-08-04T00:42:37.565Z,24.14
2022-08-04T00:46:16.197Z,24.16
2022-08-04T00:49:11.332Z,24.18
2022-08-04T00:52:31.715Z,24.18
2022-08-04T00:54:59.134Z,24.12
2022-08-04T00:57:58.023Z,24.13
2022-08-04T01:00:25.641Z,24.08
2022-08-04T01:03:18.399Z,24.03
2022-08-04T01:06:04.239Z,23.96
2022-08-04T01:09:03.420Z,23.81
2022-08-04T01:11:59.846Z,23.75
2022-08-04T01:14:51.596Z,23.69
2022-08-04T01:17:25.138Z,23.68
2022-08-04T01:20:05.242Z,23.66
2022-08-04T01:23:11.953Z,23.50
2022-08-04T01:26:42.550Z,23.21
2022-08-04T01:29:14.854Z,22.96
2022-08-04T01:31:57.794Z,22.95
2022-08-04T01:34:29.750Z,23.00
2022-08-04T01:37:07.106Z,23.06
2022-08-04T01:39:41.952Z,23.11
2022-08-04T01:42:11.077Z,23.14
2022-08-04T01:44:41.696Z,23.15
2022-08-04T01:47:10.147Z,23.16
2022-08-04T01:49:40.692Z,23.17
2022-08-04T01:52:09.879Z,23.15
2022-08-04T01:54:41.743Z,23.14
2022-08-04T01:57:37.561Z,23.15
2022-08-04T02:00:00.910Z,23.16
2022-08-04T02:02:28.127Z,23.16
2022-08-04T02:04:56.178Z,23.20
2022-08-04T02:07:47.663Z,23.19
2022-08-04T02:10:28.800Z,23.17
2022-08-04T02:13:15.538Z,23.19
2022-08-04T02:16:00.750Z,23.16
2022-08-04T02:18:39.178Z,23.14
2022-08-04T02:21:06.420Z,23.11
2022-08-04T02:23:38.431Z,23.10
2022-08-04T02:26:15.489Z,23.02
2022-08-04T02:29:07.087Z,22.99
2022-08-04T02:31:48.166Z,22.97
2022-08-04T02:34:28.123Z,22.97
2022-08-04T02:36:58.899Z,22.97
2022-08-04T02:39:48.369Z,22.95
2022-08-04T02:42:17.470Z,22.90
2022-08-04T02:44:51.331Z,22.78
2022-08-04T02:47:22.298Z,22.43
2022-08-04T02:49:51.962Z,22.21
2022-08-04T02:52:21.697Z,21.99
2022-08-04T02:54:53.505Z,21.83
2022-08-04T02:57:24.329Z,21.77
2022-08-04T03:00:06.366Z,21.79
2022-08-04T03:02:54.535Z,21.81
2022-08-04T03:05:27.867Z,21.86
2022-08-04T03:08:25.526Z,21.89
2022-08-04T03:11:39.988Z,21.96
2022-08-04T03:14:45.557Z,22.02
2022-08-04T03:17:55.389Z,22.08
2022-08-04T03:21:10.271Z,22.10
2022-08-04T03:24:30.168Z,22.09
2022-08-04T03:27:47.684Z,22.12
2022-08-04T03:30:20.397Z,22.17
2022-08-04T03:33:37.881Z,22.21
2022-08-04T03:36:46.453Z,22.21
2022-08-04T03:40:16.030Z,22.19
2022-08-04T03:43:56.973Z,22.22
2022-08-04T03:46:54.721Z,22.19
2022-08-04T03:50:21.227Z,22.21
2022-08-04T03:53:26.494Z,22.23
2022-08-04T03:59:37.135Z,22.17
2022-08-04T04:02:51.111Z,22.21
2022-08-04T04:06:17.593Z,22.13
2022-08-04T04:09:56.667Z,22.11
2022-08-04T04:12:53.351Z,21.94
2022-08-04T04:15:50.069Z,21.81
2022-08-04T04:18:54.350Z,21.58
2022-08-04T04:21:52.265Z,21.45
2022-08-04T04:24:46.831Z,21.50
2022-08-04T04:27:34.659Z,21.77
2022-08-04T04:30:08.251Z,22.05
2022-08-04T04:32:57.273Z,22.52
2022-08-04T04:35:38.687Z,23.11
2022-08-04T04:38:40.195Z,23.62
2022-08-04T04:41:35.841Z,23.82
2022-08-04T04:44:42.589Z,24.13
2022-08-04T04:47:43.170Z,24.42
2022-08-04T04:50:19.236Z,24.78
2022-08-04T04:52:55.110Z,25.26
2022-08-04T04:55:28.122Z,25.78
2022-08-04T04:58:00.774Z,26.39
2022-08-04T05:01:05.705Z,27.06
2022-08-04T05:04:07.379Z,27.91
2022-08-04T05:07:06.104Z,28.35
2022-08-04T05:09:57.824Z,28.99
2022-08-04T05:14:31.637Z,29.27
2022-08-04T05:15:40.131Z,29.92
2022-08-04T05:18:15.994Z,30.41
2022-08-04T05:20:48.468Z,30.68
2022-08-04T05:23:21.335Z,31.02
2022-08-04T05:25:59.318Z,31.28
2022-08-04T05:28:36.142Z,31.65
2022-08-04T05:31:12.245Z,31.50
2022-08-04T05:33:47.001Z,32.09
2022-08-04T05:36:35.376Z,32.66
2022-08-04T05:39:14.511Z,33.22
2022-08-04T05:41:45.437Z,33.70
2022-08-04T05:44:15.291Z,34.21
2022-08-04T05:46:54.182Z,34.38
2022-08-04T05:49:24.474Z,34.34
2022-08-04T05:51:55.273Z,34.77
2022-08-04T05:54:24.441Z,35.16
2022-08-04T05:56:53.979Z,35.63
2022-08-04T05:59:23.134Z,35.74
2022-08-04T06:01:57.505Z,35.98
2022-08-04T06:04:31.809Z,35.98
2022-08-04T06:06:58.914Z,36.34
2022-08-04T06:09:26.105Z,36.43
2022-08-04T06:12:02.068Z,36.72
2022-08-04T06:14:39.373Z,36.87
2022-08-04T06:18:33.145Z,37.16
2022-08-04T06:20:17.838Z,37.49
2022-08-04T06:22:53.693Z,37.60
2022-08-04T06:25:28.524Z,38.17
2022-08-04T06:27:57.487Z,38.69
2022-08-04T06:30:28.289Z,38.68
2022-08-04T06:33:03.947Z,39.32
2022-08-04T06:35:33.590Z,39.66
2022-08-04T06:38:02.412Z,39.64
2022-08-04T06:40:33.833Z,36.64
2022-08-04T06:43:02.761Z,38.38
2022-08-04T06:45:31.591Z,38.81
2022-08-04T06:48:01.591Z,39.53
2022-08-04T06:51:29.205Z,39.65
2022-08-04T06:53:19.383Z,40.18
2022-08-04T06:56:12.841Z,40.59
2022-08-04T06:58:42.235Z,39.38
2022-08-04T07:01:11.284Z,39.03
2022-08-04T07:03:39.886Z,39.08
2022-08-04T07:06:14.708Z,38.16
2022-08-04T07:08:42.894Z,37.32
2022-08-04T07:11:10.882Z,36.98
2022-08-04T07:13:43.245Z,33.59
2022-08-04T07:16:15.290Z,32.80
2022-08-04T07:18:44.043Z,33.93
2022-08-04T07:21:17.839Z,35.32
2022-08-04T07:23:46.051Z,33.95
2022-08-04T07:26:13.585Z,32.67
2022-08-04T07:28:41.742Z,31.82
2022-08-04T07:31:32.544Z,32.09
2022-08-04T07:34:17.659Z,31.37
2022-08-04T07:36:53.030Z,31.45
2022-08-04T07:39:27.546Z,31.79
2022-08-04T07:41:58.909Z,31.88
2022-08-04T07:44:27.515Z,32.27
2022-08-04T07:46:54.772Z,31.54
2022-08-04T07:49:56.266Z,32.01
2022-08-04T07:52:11.823Z,32.70
2022-08-04T07:54:40.408Z,32.15
2022-08-04T07:57:07.835Z,33.31
2022-08-04T07:59:50.115Z,33.13
2022-08-04T08:02:20.823Z,34.36
2022-08-04T08:04:49.981Z,34.37
2022-08-04T08:07:19.460Z,32.65
2022-08-04T08:09:46.540Z,31.78
2022-08-04T08:12:37.747Z,33.15
2022-08-04T08:15:02.076Z,33.46
2022-08-04T08:17:58.663Z,32.40
2022-08-04T08:20:31.225Z,32.58
2022-08-04T08:23:48.841Z,31.85
2022-08-04T08:26:16.989Z,32.28
2022-08-04T08:28:45.036Z,32.05
2022-08-04T08:31:12.284Z,32.25
2022-08-04T08:33:40.826Z,32.78
2022-08-04T08:36:19.720Z,32.81
2022-08-04T08:39:00.557Z,33.35
2022-08-04T08:42:12.446Z,32.43
2022-08-04T08:45:22.032Z,33.75
2022-08-04T08:48:21.809Z,32.92
2022-08-04T08:51:17.434Z,32.77
2022-08-04T08:54:08.288Z,33.63
2022-08-04T08:56:51.496Z,33.55
2022-08-04T08:59:48.459Z,34.07
2022-08-04T09:07:35.311Z,34.06
2022-08-04T09:10:49.629Z,35.16
2022-08-04T09:13:24.032Z,35.95
2022-08-04T09:16:03.636Z,34.78
2022-08-04T09:18:41.571Z,35.18
2022-08-04T09:21:23.211Z,35.90
2022-08-04T09:24:34.834Z,36.34
2022-08-04T09:27:00.834Z,34.83
2022-08-04T09:29:43.258Z,34.50
2022-08-04T09:32:27.400Z,35.45
2022-08-04T09:35:11.914Z,36.01
2022-08-04T09:37:54.885Z,35.42
2022-08-04T09:40:52.785Z,35.09
2022-08-04T09:43:59.047Z,34.64
2022-08-04T09:46:30.246Z,35.40
2022-08-04T09:49:04.862Z,35.29
2022-08-04T09:51:58.385Z,35.65
2022-08-04T09:54:46.693Z,35.27
2022-08-04T09:57:28.624Z,35.82
2022-08-04T10:00:05.907Z,36.76
2022-08-04T10:02:51.016Z,36.64
2022-08-04T10:05:25.126Z,36.24
2022-08-04T10:08:18.374Z,35.82
2022-08-04T10:10:59.759Z,35.52
2022-08-04T10:13:48.295Z,36.62
2022-08-04T10:16:40.751Z,36.77
2022-08-04T10:19:25.751Z,36.44
2022-08-04T10:22:29.840Z,36.78
2022-08-04T10:26:03.389Z,36.69
2022-08-04T10:28:18.394Z,37.64
2022-08-04T10:31:49.809Z,37.80
2022-08-04T10:34:22.288Z,38.42
2022-08-04T10:37:06.160Z,36.47
2022-08-04T10:39:54.068Z,36.51
2022-08-04T10:42:35.788Z,36.27
2022-08-04T10:45:18.061Z,37.38
2022-08-04T10:48:05.877Z,37.23
2022-08-04T10:50:48.525Z,38.15
2022-08-04T10:55:02.311Z,37.65
2022-08-04T12:46:32.263Z,37.01
2022-08-04T12:50:12.377Z,36.52
2022-08-04T12:53:03.762Z,36.41
2022-08-04T12:55:35.100Z,36.53
2022-08-04T12:58:13.437Z,36.78
2022-08-04T13:01:01.972Z,36.59
2022-08-04T13:03:58.237Z,36.39
2022-08-04T13:06:31.105Z,36.25
2022-08-04T13:13:05.312Z,36.27
2022-08-04T13:15:32.536Z,36.53
2022-08-04T13:18:05.636Z,36.79
2022-08-04T13:20:44.576Z,36.98
2022-08-04T13:23:21.976Z,36.92
2022-08-04T13:26:43.580Z,36.65
2022-08-04T13:28:54.838Z,36.81
2022-08-04T13:31:35.856Z,36.95
2022-08-04T13:34:08.266Z,37.01
2022-08-04T13:36:49.300Z,36.69
2022-08-04T13:39:20.394Z,36.42
2022-08-04T13:41:57.950Z,36.17
2022-08-04T13:44:30.609Z,36.10
2022-08-04T13:47:03.418Z,35.93
2022-08-04T13:50:16.952Z,35.73
2022-08-04T13:52:47.059Z,36.02
2022-08-04T13:55:28.443Z,36.27
2022-08-04T13:58:04.887Z,36.47
2022-08-04T14:00:44.908Z,36.62
2022-08-04T14:03:24.719Z,36.71
2022-08-04T14:06:14.942Z,36.72
2022-08-04T14:08:54.761Z,36.41
2022-08-04T14:12:09.085Z,36.18
2022-08-04T14:14:25.645Z,36.00
2022-08-04T14:17:04.862Z,35.96
2022-08-04T14:30:24.019Z,35.79
2022-08-04T14:34:02.509Z,36.01
2022-08-04T14:35:58.306Z,36.06
2022-08-04T14:43:19.523Z,35.96
2022-08-04T14:46:21.523Z,35.79
2022-08-04T14:57:23.117Z,35.87
2022-08-04T14:59:59.744Z,35.78
2022-08-04T15:02:30.457Z,35.79
2022-08-04T15:05:59.895Z,35.87
2022-08-04T15:07:49.380Z,35.99
2022-08-04T15:10:16.746Z,36.11
2022-08-04T15:12:45.735Z,36.21
2022-08-04T15:15:35.277Z,36.35
2022-08-04T15:18:00.822Z,36.50
2022-08-04T15:20:37.472Z,36.65
2022-08-04T15:23:10.118Z,36.75
2022-08-04T15:25:42.376Z,36.74
2022-08-04T15:28:19.871Z,36.78
2022-08-04T15:30:53.366Z,36.30
2022-08-04T15:33:24.035Z,36.14
2022-08-04T15:36:15.448Z,36.30
2022-08-04T15:38:59.944Z,36.08
2022-08-04T15:41:46.216Z,36.00
2022-08-04T15:45:07.968Z,36.23
2022-08-04T15:47:35.103Z,36.18
2022-08-04T15:50:13.658Z,36.16
2022-08-04T15:54:03.657Z,36.14
2022-08-04T15:56:48.358Z,36.05
2022-08-04T16:00:00.982Z,36.00
2022-08-04T16:06:44.602Z,35.92
2022-08-04T16:09:45.685Z,36.05
2022-08-04T16:12:55.243Z,35.95
2022-08-04T16:15:45.180Z,36.01
2022-08-04T16:18:34.704Z,36.05
2022-08-04T16:21:06.067Z,36.04
2022-08-04T16:24:13.112Z,36.07
2022-08-04T16:26:57.261Z,36.14
2022-08-04T16:29:38.577Z,36.19
2022-08-04T16:32:17.962Z,35.93
2022-08-04T16:34:56.226Z,36.04
2022-08-04T16:37:31.507Z,36.10
2022-08-04T16:40:41.405Z,36.03
2022-08-04T16:43:13.650Z,35.96
2022-08-04T16:45:54.535Z,35.83
2022-08-04T16:48:30.025Z,35.82
2022-08-04T16:56:11.290Z,35.96
2022-08-04T16:58:55.243Z,35.97
2022-08-04T17:01:33.207Z,35.89
2022-08-04T17:04:07.682Z,35.77
2022-08-04T17:06:38.506Z,35.82
2022-08-04T17:09:12.223Z,35.74
2022-08-04T17:11:44.701Z,35.77
2022-08-04T17:14:13.112Z,35.78
2022-08-04T17:16:42.674Z,35.76
2022-08-04T17:19:24.112Z,35.80
2022-08-04T17:22:04.588Z,35.84
2022-08-04T17:25:51.775Z,35.73
2022-08-04T17:28:28.555Z,35.68
2022-08-04T17:31:11.948Z,35.58
2022-08-04T17:33:55.007Z,35.58
2022-08-04T17:36:37.301Z,35.47
2022-08-04T17:44:37.692Z,35.22
2022-08-04T17:47:16.375Z,35.28
2022-08-04T17:50:11.701Z,35.31
2022-08-04T17:57:38.834Z,35.16
2022-08-04T18:01:23.790Z,34.91
2022-08-04T18:03:58.260Z,34.88
2022-08-04T18:06:32.238Z,34.76
2022-08-04T18:09:23.083Z,34.79
2022-08-04T18:11:56.812Z,34.69
2022-08-04T18:14:28.766Z,34.55
2022-08-04T18:16:58.139Z,34.51
2022-08-04T18:19:31.657Z,34.51
2022-08-04T18:22:00.279Z,34.52
2022-08-04T18:27:20.266Z,34.23
2022-08-04T18:30:15.128Z,34.15
2022-08-04T18:32:36.364Z,34.00
2022-08-04T18:35:07.319Z,33.94
2022-08-04T18:38:05.460Z,33.89
2022-08-04T18:40:52.326Z,33.80
2022-08-04T18:43:28.273Z,33.65
2022-08-04T18:45:58.140Z,33.48
2022-08-04T18:51:23.489Z,33.07
2022-08-04T18:54:01.661Z,32.83
2022-08-04T18:56:32.668Z,32.65
2022-08-04T18:59:03.629Z,32.37
2022-08-04T19:02:16.653Z,32.28
2022-08-04T20:09:24.558Z,28.94
2022-08-04T20:11:55.407Z,29.06
2022-08-04T20:14:31.436Z,29.07
2022-08-04T20:17:02.080Z,29.13
2022-08-04T20:19:30.268Z,29.05
2022-08-04T20:22:00.238Z,28.84
2022-08-04T20:24:37.791Z,28.86
2022-08-04T20:27:14.835Z,28.90
2022-08-04T20:29:49.299Z,28.73
2022-08-04T20:32:25.254Z,28.71
2022-08-04T20:34:55.144Z,28.68
2022-08-04T20:37:24.748Z,28.68
2022-08-04T20:39:58.757Z,28.56
2022-08-04T20:42:34.001Z,28.53
2022-08-04T20:45:02.152Z,28.53
2022-08-04T20:47:35.741Z,28.56
2022-08-04T20:50:08.923Z,28.31
2022-08-04T20:52:36.712Z,28.33
2022-08-04T20:55:08.736Z,28.13
2022-08-04T20:57:49.157Z,28.15
2022-08-04T21:00:26.509Z,28.15
2022-08-04T21:02:57.777Z,28.25
2022-08-04T21:05:26.486Z,28.37
2022-08-04T21:07:55.708Z,28.27
2022-08-04T21:10:24.237Z,28.29
2022-08-04T21:12:53.736Z,28.34
2022-08-04T21:15:24.832Z,28.43
2022-08-04T21:17:58.741Z,28.57
2022-08-04T21:20:43.165Z,28.56
2022-08-04T21:23:10.269Z,28.42
2022-08-04T21:25:43.405Z,28.29
2022-08-04T21:28:11.409Z,28.16
2022-08-04T21:30:54.513Z,28.07
2022-08-04T21:33:49.964Z,27.99
2022-08-04T21:36:13.686Z,27.81
2022-08-04T21:38:41.687Z,27.76
2022-08-04T21:41:10.336Z,27.73
2022-08-04T21:43:42.976Z,27.69
2022-08-04T21:46:11.798Z,27.65
2022-08-04T21:48:39.211Z,27.66
2022-08-04T21:51:58.840Z,27.55
2022-08-04T21:54:04.929Z,27.65
2022-08-04T21:56:35.146Z,27.71
2022-08-04T21:59:08.766Z,27.76
2022-08-04T22:01:51.839Z,27.80
2022-08-04T22:09:14.859Z,27.90
2022-08-04T22:14:36.154Z,27.85
2022-08-04T22:17:13.616Z,27.85
2022-08-04T22:19:54.596Z,27.82
2022-08-04T22:22:27.045Z,27.87
2022-08-04T22:25:01.508Z,27.86
2022-08-04T22:27:30.372Z,27.85
2022-08-04T22:29:59.437Z,27.81
2022-08-04T22:32:26.271Z,27.68
2022-08-04T22:34:53.872Z,27.51
2022-08-04T22:37:20.859Z,27.41
2022-08-04T22:40:04.777Z,27.23
2022-08-04T22:42:33.348Z,27.07
2022-08-04T22:45:01.172Z,27.07
2022-08-04T22:47:28.943Z,26.90
2022-08-04T22:50:20.786Z,26.66
2022-08-04T22:52:51.637Z,26.36
2022-08-04T22:55:23.008Z,26.10
2022-08-04T22:58:05.114Z,26.25
2022-08-04T23:00:36.294Z,26.25
2022-08-04T23:03:06.996Z,26.39
2022-08-04T23:05:38.352Z,26.51
2022-08-04T23:08:05.823Z,26.59
2022-08-04T23:10:33.296Z,26.59
2022-08-04T23:13:04.105Z,26.43
2022-08-04T23:15:33.453Z,26.12
2022-08-04T23:18:01.976Z,25.92
2022-08-04T23:20:32.702Z,25.71
2022-08-04T23:23:00.528Z,25.67
2022-08-04T23:26:07.613Z,25.62
2022-08-04T23:28:33.190Z,25.60
2022-08-04T23:31:00.014Z,25.43
2022-08-04T23:33:49.450Z,25.46
2022-08-04T23:36:16.969Z,25.51
2022-08-04T23:38:43.885Z,25.60
2022-08-04T23:41:14.396Z,25.76
2022-08-04T23:43:55.491Z,25.86
2022-08-04T23:46:23.119Z,25.98
2022-08-04T23:48:50.151Z,26.07
2022-08-04T23:51:17.206Z,26.10
2022-08-04T23:54:02.173Z,26.15
2022-08-04T23:56:32.437Z,26.11
2022-08-04T23:59:03.634Z,25.87
